Time;durP1;ratioP1;P1;durP2;ratioP2;P2;SDS_P1;SDS_P2;PMS_P1;PMS_P2;Temp;Humidity;BMP_temperature;BMP_pressure;BME280_temperature;BME280_humidity;BME280_pressure;Samples;Min_cycle;Max_cycle;Signal;HPM_P1;HPM_P2
2022/04/28 00:01:59;;;;;;;0.00;0.00;;;11.90;96.30;;;;;;5023469;28;20041;-70
2022/04/28 00:04:25;;;;;;;0.00;0.00;;;11.90;97.30;;;;;;5037954;28;20018;-70
2022/04/28 00:06:50;;;;;;;0.00;0.00;;;11.80;96.60;;;;;;5023059;28;20025;-71
2022/04/28 00:09:16;;;;;;;0.00;0.00;;;11.80;96.50;;;;;;5037987;28;20018;-74
2022/04/28 00:11:42;;;;;;;0.00;0.00;;;11.80;97.50;;;;;;5023336;28;20149;-70
2022/04/28 00:14:09;;;;;;;0.00;0.00;;;11.60;98.60;;;;;;5023480;28;20018;-70
2022/04/28 00:16:35;;;;;;;0.00;0.00;;;11.60;97.80;;;;;;5022832;28;20052;-71
2022/04/28 00:19:02;;;;;;;0.00;0.00;;;11.50;98.80;;;;;;5023597;28;20017;-70
2022/04/28 00:21:28;;;;;;;0.00;0.00;;;11.60;97.10;;;;;;5022665;28;20018;-70
2022/04/28 00:23:54;;;;;;;0.00;0.00;;;11.60;98.50;;;;;;5062536;22;20053;-73
2022/04/28 00:26:20;;;;;;;0.00;0.00;;;11.60;96.30;;;;;;5059413;28;20032;-73
2022/04/28 00:28:46;;;;;;;0.70;0.70;;;11.60;96.00;;;;;;5060193;28;20029;-74
2022/04/28 00:31:14;;;;;;;0.00;0.00;;;11.60;96.40;;;;;;5061681;28;20354;-74
2022/04/28 00:33:42;;;;;;;0.00;0.00;;;11.60;97.00;;;;;;5059514;28;20009;-76
2022/04/28 00:36:09;;;;;;;0.00;0.00;;;11.60;97.30;;;;;;5059872;28;20088;-74
2022/04/28 00:38:35;;;;;;;0.00;0.00;;;11.60;97.20;;;;;;5056915;28;20111;-75
2022/04/28 00:41:02;;;;;;;0.00;0.00;;;11.50;96.20;;;;;;5058875;28;20085;-76
2022/04/28 00:43:31;;;;;;;0.00;0.00;;;11.50;96.70;;;;;;5056591;28;20055;-74
2022/04/28 00:45:57;;;;;;;0.00;0.00;;;11.30;98.10;;;;;;5057266;28;20035;-74
2022/04/28 00:51:09;;;;;;;0.00;0.00;;;11.30;99.70;;;;;;5058559;28;20027;-74
2022/04/28 00:53:43;;;;;;;0.00;0.00;;;11.20;99.40;;;;;;5056571;28;20017;-74
2022/04/28 00:56:09;;;;;;;0.00;0.00;;;11.20;99.90;;;;;;5055948;28;20117;-74
2022/04/28 00:58:36;;;;;;;0.00;0.00;;;11.20;97.60;;;;;;5058163;28;20013;-72
2022/04/28 01:01:04;;;;;;;0.00;0.00;;;11.30;97.30;;;;;;5058543;28;20043;-72
2022/04/28 01:03:30;;;;;;;0.00;0.00;;;11.30;97.40;;;;;;5058460;28;20031;-72
2022/04/28 01:05:57;;;;;;;0.00;0.00;;;11.30;97.40;;;;;;5058825;28;20135;-72
2022/04/28 01:08:23;;;;;;;0.00;0.00;;;11.20;98.70;;;;;;5058370;28;20092;-71
2022/04/28 01:10:49;;;;;;;0.00;0.00;;;11.20;98.00;;;;;;5057724;28;20028;-72
2022/04/28 01:13:15;;;;;;;0.00;0.00;;;11.20;97.00;;;;;;5058536;28;20060;-72
2022/04/28 01:15:47;;;;;;;0.10;0.00;;;11.20;97.30;;;;;;5056971;28;20174;-71
2022/04/28 01:18:14;;;;;;;0.00;0.00;;;11.20;96.90;;;;;;5045911;28;20097;-73
2022/04/28 01:20:40;;;;;;;3.83;0.85;;;11.20;98.50;;;;;;5058085;28;20061;-71
2022/04/28 01:23:07;;;;;;;0.00;0.00;;;11.10;98.20;;;;;;5058912;28;20037;-73
2022/04/28 01:25:33;;;;;;;0.00;0.00;;;11.10;96.90;;;;;;5056987;28;20033;-73
2022/04/28 01:27:59;;;;;;;0.00;0.00;;;11.10;97.30;;;;;;5058425;28;20044;-72
2022/04/28 01:30:25;;;;;;;0.00;0.00;;;11.20;97.10;;;;;;5057703;28;20017;-71
2022/04/28 01:32:58;;;;;;;0.00;0.00;;;11.10;96.30;;;;;;5059615;28;20056;-73
2022/04/28 01:35:25;;;;;;;0.00;0.00;;;11.10;97.70;;;;;;5059028;28;20235;-72
2022/04/28 01:37:52;;;;;;;0.00;0.00;;;11.10;98.20;;;;;;5056608;28;20025;-72
2022/04/28 01:40:18;;;;;;;0.00;0.00;;;11.00;98.60;;;;;;5033565;28;20044;-72
2022/04/28 01:42:45;;;;;;;0.00;0.00;;;11.00;98.20;;;;;;5033422;28;20041;-72
2022/04/28 01:45:11;;;;;;;0.00;0.00;;;10.90;99.20;;;;;;5033903;28;20126;-72
2022/04/28 01:47:39;;;;;;;0.00;0.00;;;10.80;97.40;;;;;;5033736;28;20033;-72
2022/04/28 01:50:06;;;;;;;0.00;0.00;;;10.80;97.60;;;;;;5046836;28;20013;-72
2022/04/28 01:55:16;;;;;;;0.00;0.00;;;10.70;99.60;;;;;;5033477;28;20040;-73
2022/04/28 01:57:43;;;;;;;0.00;0.00;;;10.70;99.90;;;;;;5033140;28;20384;-72
2022/04/28 02:00:10;;;;;;;0.00;0.00;;;10.70;99.90;;;;;;5034551;28;20023;-72
2022/04/28 02:02:36;;;;;;;0.00;0.00;;;10.70;99.90;;;;;;5035005;28;20020;-72
2022/04/28 02:05:03;;;;;;;0.00;0.00;;;10.70;99.90;;;;;;5034357;28;20261;-71
2022/04/28 02:07:29;;;;;;;0.00;0.00;;;10.70;99.70;;;;;;5037414;28;20024;-71
2022/04/28 02:09:55;;;;;;;0.00;0.00;;;10.70;99.60;;;;;;5036887;28;20053;-73
2022/04/28 02:12:21;;;;;;;0.25;0.25;;;10.60;99.00;;;;;;5051069;28;20500;-72
2022/04/28 02:14:47;;;;;;;0.00;0.00;;;10.50;98.20;;;;;;5035733;28;20061;-72
2022/04/28 02:17:24;;;;;;;0.00;0.00;;;10.60;98.80;;;;;;5050059;28;20036;-72
2022/04/28 02:19:51;;;;;;;0.00;0.00;;;10.50;99.50;;;;;;5053592;28;20219;-73
2022/04/28 02:22:17;;;;;;;0.00;0.00;;;10.40;98.40;;;;;;5057150;28;20017;-73
2022/04/28 02:24:43;;;;;;;0.00;0.00;;;10.50;99.70;;;;;;5040634;28;20045;-72
2022/04/28 02:27:09;;;;;;;0.00;0.00;;;10.40;99.90;;;;;;5055398;28;20244;-73
2022/04/28 02:29:35;;;;;;;0.00;0.00;;;10.40;99.00;;;;;;5060477;28;20083;-71
2022/04/28 02:32:02;;;;;;;0.00;0.00;;;10.40;98.70;;;;;;5062199;28;20303;-72
2022/04/28 02:34:28;;;;;;;0.00;0.00;;;10.30;98.90;;;;;;5060593;28;20021;-73
2022/04/28 02:36:53;;;;;;;0.00;0.00;;;10.30;98.00;;;;;;5061303;28;20191;-73
2022/04/28 02:39:19;;;;;;;0.10;0.10;;;10.30;99.10;;;;;;5061903;28;20024;-72
2022/04/28 02:41:46;;;;;;;0.00;0.00;;;10.30;98.10;;;;;;5043233;28;20045;-73
2022/04/28 02:44:12;;;;;;;0.00;0.00;;;10.20;98.40;;;;;;5060583;28;20047;-73
2022/04/28 02:46:42;;;;;;;0.03;0.03;;;10.30;98.00;;;;;;5059680;28;20044;-75
2022/04/28 02:49:09;;;;;;;0.00;0.00;;;10.30;98.00;;;;;;5060598;28;20021;-74
2022/04/28 02:51:35;;;;;;;0.00;0.00;;;10.30;97.90;;;;;;5059762;28;20062;-75
2022/04/28 02:54:01;;;;;;;0.00;0.00;;;10.20;99.30;;;;;;5060989;28;20084;-74
2022/04/28 02:56:45;;;;;;;0.00;0.00;;;10.20;99.90;;;;;;5059988;28;20400;-71
2022/04/28 02:59:11;;;;;;;0.00;0.00;;;10.30;99.90;;;;;;5060611;28;20029;-73
2022/04/28 03:01:37;;;;;;;0.00;0.00;;;10.20;99.40;;;;;;5061015;28;20298;-73
2022/04/28 03:04:03;;;;;;;0.00;0.00;;;10.20;98.90;;;;;;5060134;28;20021;-74
2022/04/28 03:11:57;;;;;;;0.00;0.00;;;10.10;98.50;;;;;;5061689;28;20051;-74
2022/04/28 03:14:23;;;;;;;0.00;0.00;;;10.10;98.20;;;;;;5059926;28;20017;-73
2022/04/28 03:16:49;;;;;;;0.00;0.00;;;10.10;98.80;;;;;;5059374;28;20322;-74
2022/04/28 03:19:15;;;;;;;0.00;0.00;;;10.10;98.70;;;;;;5061079;28;20016;-74
2022/04/28 03:21:40;;;;;;;0.00;0.00;;;10.10;98.90;;;;;;5059432;28;20055;-74
2022/04/28 03:24:06;;;;;;;0.00;0.00;;;10.10;98.60;;;;;;5059561;28;20323;-75
2022/04/28 03:26:32;;;;;;;0.00;0.00;;;10.00;98.90;;;;;;5060506;28;20036;-74
2022/04/28 03:28:58;;;;;;;0.28;0.28;;;10.00;98.70;;;;;;5060947;28;20051;-74
2022/04/28 03:31:24;;;;;;;0.00;0.00;;;10.00;98.50;;;;;;5059286;28;20025;-73
2022/04/28 03:33:50;;;;;;;0.00;0.00;;;10.00;99.10;;;;;;5059071;28;20021;-74
2022/04/28 03:39:00;;;;;;;0.00;0.00;;;10.00;99.90;;;;;;5060866;28;20173;-74
2022/04/28 03:41:26;;;;;;;0.00;0.00;;;10.00;99.90;;;;;;5059605;28;20092;-73
2022/04/28 03:43:51;;;;;;;0.35;0.35;;;9.90;99.90;;;;;;5058931;28;20021;-72
2022/04/28 03:46:20;;;;;;;0.00;0.00;;;9.90;99.60;;;;;;5059294;28;20397;-72
2022/04/28 03:48:48;;;;;;;0.00;0.00;;;9.90;99.00;;;;;;5060386;28;20036;-72
2022/04/28 03:51:14;;;;;;;0.00;0.00;;;10.00;98.80;;;;;;5060566;28;20020;-71
2022/04/28 03:53:40;;;;;;;0.00;0.00;;;10.00;98.60;;;;;;5059934;28;20057;-71
2022/04/28 03:56:06;;;;;;;0.00;0.00;;;10.00;98.90;;;;;;5060294;28;20041;-71
2022/04/28 03:58:32;;;;;;;0.00;0.00;;;10.00;98.80;;;;;;5059786;28;20185;-71
2022/04/28 04:00:59;;;;;;;0.10;0.00;;;10.10;98.60;;;;;;5058808;28;20021;-72
2022/04/28 04:03:25;;;;;;;0.00;0.00;;;10.10;98.60;;;;;;5058758;28;20044;-72
2022/04/28 04:05:50;;;;;;;0.00;0.00;;;10.00;98.60;;;;;;5057781;28;20043;-71
2022/04/28 04:08:17;;;;;;;0.00;0.00;;;10.10;98.80;;;;;;5059151;28;20095;-72
2022/04/28 04:10:43;;;;;;;0.00;0.00;;;10.10;98.90;;;;;;5059413;28;20326;-72
2022/04/28 04:13:09;;;;;;;0.00;0.00;;;10.10;99.80;;;;;;5059906;28;20020;-74
2022/04/28 04:15:34;;;;;;;0.00;0.00;;;10.00;99.90;;;;;;5059087;28;20060;-75
2022/04/28 04:18:01;;;;;;;0.00;0.00;;;10.10;99.90;;;;;;5060287;28;20021;-73
2022/04/28 04:20:27;;;;;;;0.00;0.00;;;10.10;99.90;;;;;;5054191;28;20192;-72
2022/04/28 04:22:54;;;;;;;0.00;0.00;;;10.10;99.90;;;;;;5035138;28;20053;-72
2022/04/28 04:25:20;;;;;;;0.00;0.00;;;10.20;99.90;;;;;;5037020;28;20029;-72
2022/04/28 04:27:46;;;;;;;0.00;0.00;;;10.20;99.90;;;;;;5036118;28;20271;-72
2022/04/28 04:32:56;;;;;;;0.00;0.00;;;10.20;99.90;;;;;;5040302;28;20072;-71
2022/04/28 04:35:23;;;;;;;0.00;0.00;;;10.10;99.90;;;;;;5039759;28;20096;-71
2022/04/28 04:37:50;;;;;;;0.00;0.00;;;10.10;99.90;;;;;;5039145;28;20081;-71
2022/04/28 04:40:34;;;;;;;0.00;0.00;;;10.20;99.90;;;;;;5038148;28;20029;-71
2022/04/28 04:43:00;;;;;;;0.00;0.00;;;10.20;99.90;;;;;;5038509;28;20068;-72
2022/04/28 04:45:26;;;;;;;0.00;0.00;;;10.20;99.90;;;;;;5055140;28;20245;-71
2022/04/28 04:47:52;;;;;;;0.00;0.00;;;10.30;99.90;;;;;;5055465;28;20250;-71
2022/04/28 04:50:17;;;;;;;0.55;0.35;;;10.30;99.90;;;;;;5059231;28;20020;-73
2022/04/28 04:52:43;;;;;;;0.00;0.00;;;10.50;99.90;;;;;;5057768;28;20189;-72
2022/04/28 04:55:09;;;;;;;0.00;0.00;;;10.50;99.80;;;;;;5059179;28;20375;-72
2022/04/28 04:57:34;;;;;;;0.00;0.00;;;10.50;99.90;;;;;;5057487;28;20021;-71
2022/04/28 05:00:02;;;;;;;0.00;0.00;;;10.60;99.90;;;;;;5059184;28;20256;-72
2022/04/28 05:02:28;;;;;;;0.00;0.00;;;10.70;99.50;;;;;;5058090;28;20021;-73
2022/04/28 05:04:53;;;;;;;0.00;0.00;;;10.70;99.40;;;;;;5059250;28;20458;-73
2022/04/28 05:07:19;;;;;;;0.00;0.00;;;10.70;99.30;;;;;;5058914;28;20048;-71
2022/04/28 05:09:45;;;;;;;0.22;0.13;;;10.80;99.70;;;;;;5057531;28;20044;-72
2022/04/28 05:12:10;;;;;;;0.00;0.00;;;10.80;99.60;;;;;;5058540;28;20036;-73
2022/04/28 05:14:36;;;;;;;0.15;0.10;;;10.80;99.40;;;;;;5057795;28;20199;-70
2022/04/28 05:17:02;;;;;;;0.22;0.22;;;10.90;99.30;;;;;;5058381;28;20024;-71
2022/04/28 05:19:28;;;;;;;0.17;0.17;;;11.00;99.40;;;;;;5058110;28;20055;-72
2022/04/28 05:21:57;;;;;;;0.00;0.00;;;11.00;99.40;;;;;;5057886;28;20041;-73
2022/04/28 05:24:24;;;;;;;0.00;0.00;;;11.00;99.00;;;;;;5059572;28;20049;-72
2022/04/28 05:26:49;;;;;;;0.00;0.00;;;11.10;99.10;;;;;;5057837;28;20021;-72
2022/04/28 05:29:15;;;;;;;0.00;0.00;;;11.10;98.80;;;;;;5058571;28;20268;-86
2022/04/28 05:31:40;;;;;;;0.00;0.00;;;11.20;99.00;;;;;;5057541;28;20287;-75
2022/04/28 05:34:06;;;;;;;0.10;0.10;;;11.20;98.70;;;;;;5058112;28;20017;-73
2022/04/28 05:36:32;;;;;;;1.08;0.57;;;11.20;98.80;;;;;;5058102;28;20100;-74
2022/04/28 05:38:59;;;;;;;0.00;0.00;;;11.40;98.60;;;;;;5057407;28;20125;-74
2022/04/28 05:41:26;;;;;;;0.00;0.00;;;11.40;99.10;;;;;;5059651;28;20032;-73
2022/04/28 05:46:38;;;;;;;0.75;0.35;;;11.60;99.90;;;;;;5061047;28;20431;-72
2022/04/28 05:49:07;;;;;;;0.00;0.00;;;11.90;98.20;;;;;;5057468;28;20028;-73
2022/04/28 05:51:33;;;;;;;0.00;0.00;;;11.90;99.30;;;;;;5038070;28;20033;-73
2022/04/28 05:53:58;;;;;;;0.10;0.10;;;12.00;98.60;;;;;;5051193;28;20025;-74
2022/04/28 05:56:24;;;;;;;0.00;0.00;;;12.20;99.70;;;;;;5044328;28;20041;-75
2022/04/28 05:58:50;;;;;;;0.05;0.05;;;12.20;99.90;;;;;;5048101;28;20044;-72
2022/04/28 06:01:16;;;;;;;0.00;0.00;;;12.40;98.80;;;;;;5046844;28;20068;-73
2022/04/28 06:03:43;;;;;;;6.03;2.42;;;12.40;98.80;;;;;;5046881;28;20021;-76
2022/04/28 06:06:09;;;;;;;0.00;0.00;;;12.50;97.00;;;;;;5041091;28;20096;-72
2022/04/28 06:08:36;;;;;;;0.00;0.00;;;12.60;96.10;;;;;;5036684;28;20021;-73
2022/04/28 06:11:02;;;;;;;0.00;0.00;;;12.70;97.60;;;;;;5047140;28;20120;-72
2022/04/28 06:13:29;;;;;;;0.20;0.20;;;12.70;97.10;;;;;;5038137;28;20209;-72
2022/04/28 06:15:56;;;;;;;0.00;0.00;;;12.80;99.10;;;;;;5040302;28;20029;-73
2022/04/28 06:18:22;;;;;;;0.00;0.00;;;13.40;98.80;;;;;;5041272;28;20022;-73
2022/04/28 06:20:47;;;;;;;0.00;0.00;;;14.40;97.30;;;;;;5040942;28;20018;-72
2022/04/28 06:23:14;;;;;;;0.00;0.00;;;15.60;95.30;;;;;;5042592;28;20132;-72
2022/04/28 06:25:40;;;;;;;0.00;0.00;;;16.50;92.80;;;;;;5044146;28;20032;-73
2022/04/28 06:28:06;;;;;;;0.00;0.00;;;17.50;91.60;;;;;;5060310;28;20029;-72
2022/04/28 06:30:32;;;;;;;0.00;0.00;;;18.30;87.70;;;;;;5061913;28;20112;-72
2022/04/28 06:32:58;;;;;;;0.00;0.00;;;18.80;90.30;;;;;;5060372;28;20150;-72
2022/04/28 06:35:23;;;;;;;0.00;0.00;;;19.50;91.90;;;;;;5060372;28;20048;-73
2022/04/28 06:37:49;;;;;;;0.00;0.00;;;20.10;93.00;;;;;;5061706;28;20029;-73
2022/04/28 06:40:15;;;;;;;0.00;0.00;;;20.70;87.80;;;;;;5062361;28;20347;-71
2022/04/28 06:42:43;;;;;;;0.00;0.00;;;20.90;81.10;;;;;;5060512;28;20295;-71
2022/04/28 06:45:10;;;;;;;0.00;0.00;;;21.40;90.30;;;;;;5060633;28;20032;-72
2022/04/28 06:47:36;;;;;;;0.30;0.30;;;21.30;83.20;;;;;;5060027;28;20221;-72
2022/04/28 06:50:02;;;;;;;0.00;0.00;;;20.50;77.00;;;;;;5061021;28;20017;-72
2022/04/28 06:52:28;;;;;;;0.00;0.00;;;19.70;86.00;;;;;;5059427;28;20089;-73
2022/04/28 06:54:54;;;;;;;0.00;0.00;;;18.90;85.20;;;;;;5059259;28;20045;-71
2022/04/28 06:57:20;;;;;;;0.00;0.00;;;18.10;81.00;;;;;;5060425;28;20315;-71
2022/04/28 06:59:45;;;;;;;0.00;0.00;;;17.50;86.60;;;;;;5056718;28;20097;-72
2022/04/28 07:02:11;;;;;;;0.00;0.00;;;17.20;86.80;;;;;;5060533;28;20020;-71
2022/04/28 07:04:37;;;;;;;0.00;0.00;;;16.80;86.70;;;;;;5059281;28;20024;-72
2022/04/28 07:07:03;;;;;;;0.00;0.00;;;16.30;88.60;;;;;;5066707;28;20023;-72
2022/04/28 07:09:29;;;;;;;0.00;0.00;;;16.00;85.60;;;;;;5059802;28;20048;-74
2022/04/28 07:11:55;;;;;;;0.00;0.00;;;15.90;85.50;;;;;;5059670;28;20283;-72
2022/04/28 07:14:20;;;;;;;0.20;0.20;;;15.70;84.60;;;;;;5073901;28;20023;-72
2022/04/28 07:16:46;;;;;;;0.00;0.00;;;15.50;85.30;;;;;;5071203;28;20276;-72
2022/04/28 07:19:12;;;;;;;0.00;0.00;;;15.30;89.00;;;;;;5061371;28;20122;-71
2022/04/28 07:21:37;;;;;;;0.00;0.00;;;15.40;91.30;;;;;;5061596;28;20032;-73
2022/04/28 07:24:03;;;;;;;0.00;0.00;;;15.40;92.50;;;;;;5058915;28;20136;-72
2022/04/28 07:26:29;;;;;;;0.00;0.00;;;15.30;92.10;;;;;;5061527;28;20261;-73
2022/04/28 07:28:55;;;;;;;0.00;0.00;;;15.20;90.50;;;;;;5059465;28;20027;-73
2022/04/28 07:31:21;;;;;;;0.00;0.00;;;15.20;89.80;;;;;;5059329;28;20025;-72
2022/04/28 07:33:47;;;;;;;0.00;0.00;;;15.30;91.80;;;;;;5060063;28;20017;-72
2022/04/28 07:36:12;;;;;;;0.00;0.00;;;15.20;90.30;;;;;;5060971;28;20037;-70
2022/04/28 07:38:39;;;;;;;0.00;0.00;;;15.20;92.80;;;;;;5059556;28;20032;-72
2022/04/28 07:41:05;;;;;;;0.00;0.00;;;15.20;93.00;;;;;;5060115;28;20021;-72
2022/04/28 07:43:31;;;;;;;0.28;0.28;;;15.20;95.70;;;;;;5059139;28;20016;-72
2022/04/28 07:45:56;;;;;;;0.00;0.00;;;15.20;95.40;;;;;;5059880;28;20036;-75
2022/04/28 07:48:22;;;;;;;0.00;0.00;;;15.10;90.20;;;;;;5058920;28;20092;-74
2022/04/28 07:50:50;;;;;;;0.10;0.10;;;15.00;95.70;;;;;;5060175;28;20032;-74
2022/04/28 07:53:16;;;;;;;0.00;0.00;;;15.00;95.80;;;;;;5058908;28;20020;-74
2022/04/28 07:55:42;;;;;;;0.00;0.00;;;14.90;97.20;;;;;;5060254;28;20032;-74
2022/04/28 07:58:09;;;;;;;0.10;0.10;;;14.90;96.50;;;;;;5039624;28;20079;-73
2022/04/28 08:00:36;;;;;;;0.00;0.00;;;14.90;97.60;;;;;;5040264;28;20288;-75
2022/04/28 08:03:20;;;;;;;0.10;0.10;;;14.90;98.10;;;;;;5039210;28;20026;-74
2022/04/28 08:05:46;;;;;;;0.00;0.00;;;14.90;92.50;;;;;;5039701;28;20021;-81
2022/04/28 08:08:11;;;;;;;0.00;0.00;;;14.90;95.10;;;;;;5038698;28;20068;-75
2022/04/28 08:10:37;;;;;;;0.00;0.00;;;14.90;97.80;;;;;;5038690;28;20025;-75
2022/04/28 08:13:03;;;;;;;1.10;1.10;;;15.00;98.50;;;;;;5037868;28;20017;-75
2022/04/28 08:15:29;;;;;;;0.00;0.00;;;15.00;99.40;;;;;;5038003;28;20116;-74
2022/04/28 08:17:54;;;;;;;0.00;0.00;;;15.00;99.90;;;;;;5037576;28;20084;-74
2022/04/28 08:20:20;;;;;;;0.00;0.00;;;15.10;99.90;;;;;;5038557;28;20017;-75
2022/04/28 08:22:47;;;;;;;3.75;1.40;;;15.20;98.30;;;;;;5038396;28;20367;-80
2022/04/28 08:25:12;;;;;;;0.00;0.00;;;15.20;99.00;;;;;;5037019;28;20055;-79
2022/04/28 08:27:39;;;;;;;0.10;0.00;;;15.30;99.90;;;;;;5039749;28;20038;-80
2022/04/28 08:30:05;;;;;;;0.00;0.00;;;15.30;97.50;;;;;;5039573;28;20041;-80
2022/04/28 08:32:33;;;;;;;0.30;0.30;;;15.30;98.20;;;;;;5038535;28;20098;-81
2022/04/28 08:34:58;;;;;;;0.45;0.22;;;15.20;99.90;;;;;;5046311;28;20066;-78
2022/04/28 08:37:24;;;;;;;0.57;0.57;;;15.20;97.10;;;;;;5048545;28;20048;-81
2022/04/28 08:39:50;;;;;;;0.00;0.00;;;15.20;98.10;;;;;;5038834;28;20283;-79
2022/04/28 08:42:21;;;;;;;0.47;0.47;;;15.20;97.90;;;;;;5047074;28;20035;-82
2022/04/28 08:44:47;;;;;;;0.00;0.00;;;15.20;97.00;;;;;;5049798;28;20052;-82
2022/04/28 08:47:13;;;;;;;0.00;0.00;;;15.10;93.70;;;;;;5048610;28;20022;-82
2022/04/28 08:49:42;;;;;;;0.00;0.00;;;15.20;98.00;;;;;;5048529;28;20024;-81
2022/04/28 08:52:10;;;;;;;0.00;0.00;;;15.30;96.30;;;;;;5045583;28;20326;-81
2022/04/28 08:54:39;;;;;;;1.00;0.97;;;15.50;99.90;;;;;;5040876;28;20072;-81
2022/04/28 08:57:05;;;;;;;0.10;0.10;;;15.60;99.20;;;;;;5057288;28;20274;-80
2022/04/28 08:59:31;;;;;;;0.10;0.10;;;15.80;93.40;;;;;;5038171;28;20024;-78
2022/04/28 09:01:57;;;;;;;0.40;0.40;;;16.10;96.10;;;;;;5038100;28;20222;-79
2022/04/28 09:04:23;;;;;;;0.00;0.00;;;16.60;90.80;;;;;;5041222;28;20120;-77
2022/04/28 09:06:51;;;;;;;0.00;0.00;;;17.70;95.80;;;;;;5028626;28;20052;-77
2022/04/28 09:09:17;;;;;;;;;;;19.60;90.90;;;;;;5019459;28;20194;-79
2022/04/28 09:11:44;;;;;;;0.00;0.00;;;21.40;94.20;;;;;;5027655;28;20133;-78
2022/04/28 09:14:13;;;;;;;0.00;0.00;;;22.80;92.80;;;;;;5023624;28;20022;-75
2022/04/28 09:16:42;;;;;;;0.00;0.00;;;23.80;84.20;;;;;;5021954;28;20168;-75
2022/04/28 09:19:13;;;;;;;0.00;0.00;;;24.50;81.50;;;;;;5025562;28;20052;-77
2022/04/28 09:21:40;;;;;;;0.00;0.00;;;24.80;70.80;;;;;;5022104;28;20021;-77
2022/04/28 09:24:07;;;;;;;0.00;0.00;;;25.00;85.30;;;;;;5027216;28;20075;-75
2022/04/28 09:26:33;;;;;;;0.00;0.00;;;25.70;67.80;;;;;;5029233;28;20040;-77
2022/04/28 09:29:02;;;;;;;0.00;0.00;;;26.10;77.20;;;;;;5031026;28;20075;-76
2022/04/28 09:31:29;;;;;;;0.00;0.00;;;26.40;77.80;;;;;;5030766;28;20028;-79
2022/04/28 09:33:55;;;;;;;0.00;0.00;;;26.60;63.20;;;;;;5028247;28;20180;-75
2022/04/28 09:36:21;;;;;;;0.43;0.10;;;26.80;64.20;;;;;;5028446;28;20033;-79
2022/04/28 09:38:53;;;;;;;0.00;0.00;;;25.20;50.50;;;;;;5033402;28;20037;-78
2022/04/28 09:44:03;;;;;;;0.32;0.32;;;24.90;57.60;;;;;;5029283;28;20036;-78
2022/04/28 09:46:29;;;;;;;0.00;0.00;;;25.70;59.90;;;;;;5030381;28;20096;-78
2022/04/28 09:48:55;;;;;;;0.00;0.00;;;26.40;70.30;;;;;;5030977;28;20036;-78
2022/04/28 09:51:23;;;;;;;0.00;0.00;;;27.10;52.80;;;;;;5028236;28;20273;-76
2022/04/28 09:53:51;;;;;;;0.00;0.00;;;27.60;68.80;;;;;;5030201;28;20026;-79
2022/04/28 09:56:23;;;;;;;0.00;0.00;;;28.10;64.80;;;;;;5030737;28;20079;-79
2022/04/28 09:58:51;;;;;;;0.10;0.10;;;28.40;54.50;;;;;;5032076;28;20029;-79
2022/04/28 10:01:18;;;;;;;0.38;0.00;;;28.80;50.90;;;;;;5030055;28;20041;-79
2022/04/28 10:03:44;;;;;;;;;;;28.90;47.40;;;;;;5030006;28;20096;-75
2022/04/28 10:06:11;;;;;;;0.00;0.00;;;28.80;48.70;;;;;;5022718;28;20053;-78
2022/04/28 10:08:38;;;;;;;0.00;0.00;;;28.80;54.10;;;;;;5024291;28;20017;-76
2022/04/28 10:11:06;;;;;;;0.00;0.00;;;28.90;59.10;;;;;;5029403;28;20021;-82
2022/04/28 10:13:33;;;;;;;0.47;0.47;;;28.50;56.20;;;;;;5022413;28;20105;-79
2022/04/28 10:16:21;;;;;;;0.00;0.00;;;28.80;50.40;;;;;;5022299;28;20025;-79
2022/04/28 10:18:54;;;;;;;0.00;0.00;;;28.40;45.10;;;;;;5027289;28;20048;-76
2022/04/28 10:21:29;;;;;;;0.00;0.00;;;28.00;45.90;;;;;;5024705;28;20099;-77
2022/04/28 10:32:56;;;;;;;0.00;0.00;;;28.90;47.70;;;;;;5020996;28;20056;-80
2022/04/28 10:35:38;;;;;;;0.00;0.00;;;29.20;48.90;;;;;;5030700;28;20017;-80
2022/04/28 10:38:31;;;;;;;0.00;0.00;;;28.90;53.90;;;;;;5018907;28;20045;-80
2022/04/28 10:41:06;;;;;;;0.00;0.00;;;28.50;53.40;;;;;;5021794;28;20025;-80
2022/04/28 10:43:32;;;;;;;0.00;0.00;;;28.20;51.10;;;;;;5020557;28;20013;-80
2022/04/28 10:46:22;;;;;;;0.00;0.00;;;26.90;52.20;;;;;;5018716;28;20069;-78
2022/04/28 10:48:54;;;;;;;0.00;0.00;;;25.20;41.60;;;;;;5017761;28;20332;-79
2022/04/28 10:51:22;;;;;;;0.00;0.00;;;24.10;54.40;;;;;;5027243;28;20028;-79
2022/04/28 10:54:07;;;;;;;;;;;23.20;60.80;;;;;;5030140;28;20148;-78
2022/04/28 10:56:42;;;;;;;9.68;0.80;;;22.50;53.40;;;;;;5026667;28;20172;-79
2022/04/28 10:59:32;;;;;;;0.00;0.00;;;21.40;53.60;;;;;;5030336;28;20035;-79
2022/04/28 11:02:18;;;;;;;0.00;0.00;;;21.50;56.70;;;;;;5030731;28;20037;-78
2022/04/28 11:04:52;;;;;;;0.00;0.00;;;22.00;56.20;;;;;;5029437;28;20030;-76
2022/04/28 11:07:20;;;;;;;0.00;0.00;;;21.70;53.50;;;;;;5028484;28;20025;-75
2022/04/28 11:09:55;;;;;;;0.00;0.00;;;21.30;56.30;;;;;;5037898;28;20248;-77
2022/04/28 11:12:23;;;;;;;0.00;0.00;;;20.80;55.30;;;;;;5038576;28;20017;-76
2022/04/28 11:15:00;;;;;;;0.00;0.00;;;21.20;61.00;;;;;;5041098;28;20017;-78
2022/04/28 11:17:30;;;;;;;0.00;0.00;;;22.40;56.40;;;;;;5040128;28;20025;-78
2022/04/28 11:19:59;;;;;;;0.00;0.00;;;23.70;53.70;;;;;;5017828;28;20314;-76
2022/04/28 11:22:26;;;;;;;0.00;0.00;;;24.70;51.40;;;;;;5018495;28;20060;-77
2022/04/28 11:24:52;;;;;;;0.00;0.00;;;25.50;56.80;;;;;;5017590;28;20036;-75
2022/04/28 11:27:23;;;;;;;2.45;0.65;;;26.10;55.50;;;;;;5018071;28;20304;-76
2022/04/28 11:29:56;;;;;;;0.00;0.00;;;25.80;48.30;;;;;;5016662;28;20021;-76
2022/04/28 11:32:22;;;;;;;0.00;0.00;;;25.00;48.00;;;;;;5016242;28;20288;-77
2022/04/28 11:34:50;;;;;;;0.00;0.00;;;24.40;50.00;;;;;;5016080;28;20394;-74
2022/04/28 11:37:17;;;;;;;;;;;24.20;49.00;;;;;;5016637;28;20053;-73
2022/04/28 11:39:44;;;;;;;0.00;0.00;;;24.00;50.70;;;;;;5016460;28;19959;-75
2022/04/28 11:42:12;;;;;;;0.00;0.00;;;23.80;48.90;;;;;;5015937;28;20049;-75
2022/04/28 11:44:50;;;;;;;0.00;0.00;;;23.80;49.60;;;;;;5017432;28;20379;-74
2022/04/28 11:47:16;;;;;;;0.00;0.00;;;24.30;58.30;;;;;;5017721;28;20021;-78
2022/04/28 11:49:42;;;;;;;0.68;0.17;;;24.10;50.30;;;;;;5014999;28;20108;-74
2022/04/28 11:52:24;;;;;;;0.00;0.00;;;23.70;50.70;;;;;;5016768;28;20028;-75
2022/04/28 11:54:57;;;;;;;0.00;0.00;;;23.00;50.60;;;;;;5018411;28;20100;-77
2022/04/28 11:57:23;;;;;;;0.00;0.00;;;22.40;55.90;;;;;;5014996;28;20087;-73
2022/04/28 11:59:49;;;;;;;0.00;0.00;;;21.80;56.00;;;;;;5013718;28;20033;-74
2022/04/28 12:02:35;;;;;;;0.00;0.00;;;21.50;56.40;;;;;;5016350;28;20900;-76
2022/04/28 12:05:14;;;;;;;0.20;0.20;;;21.00;59.70;;;;;;5015934;28;20037;-73
2022/04/28 12:07:42;;;;;;;0.00;0.00;;;20.60;53.90;;;;;;5018291;28;20022;-76
2022/04/28 12:15:37;;;;;;;0.00;0.00;;;20.00;52.90;;;;;;5015411;28;20048;-70
2022/04/28 12:20:58;;;;;;;0.00;0.00;;;19.70;55.90;;;;;;5016465;28;20136;-80
2022/04/28 12:23:31;;;;;;;0.00;0.00;;;19.60;63.20;;;;;;5014895;28;20248;-79
2022/04/28 12:26:02;;;;;;;0.00;0.00;;;19.60;67.10;;;;;;5014627;28;20041;-76
2022/04/28 12:28:41;;;;;;;0.00;0.00;;;19.50;55.00;;;;;;5013554;28;20041;-75
2022/04/28 12:31:11;;;;;;;0.10;0.10;;;19.50;54.60;;;;;;5013799;28;20116;-75
2022/04/28 12:33:39;;;;;;;0.00;0.00;;;19.50;56.40;;;;;;5013465;28;20028;-75
2022/04/28 12:36:06;;;;;;;0.15;0.00;;;19.50;55.40;;;;;;5016560;28;20079;-76
2022/04/28 12:38:35;;;;;;;0.00;0.00;;;19.40;52.30;;;;;;5014214;28;20025;-78
2022/04/28 12:41:14;;;;;;;0.00;0.00;;;19.30;54.40;;;;;;5016318;28;20026;-76
2022/04/28 12:43:43;;;;;;;0.00;0.00;;;19.30;53.80;;;;;;5014590;28;20013;-78
2022/04/28 12:46:10;;;;;;;0.00;0.00;;;19.20;56.90;;;;;;5016454;28;20462;-74
2022/04/28 12:48:37;;;;;;;0.08;0.00;;;19.20;56.70;;;;;;5014775;28;20392;-75
2022/04/28 12:51:23;;;;;;;0.00;0.00;;;19.20;52.90;;;;;;5016487;28;20029;-76
2022/04/28 12:53:55;;;;;;;0.00;0.00;;;19.20;55.90;;;;;;5013839;28;20046;-79
2022/04/28 12:56:31;;;;;;;0.00;0.00;;;19.10;53.70;;;;;;5014916;28;20091;-79
2022/04/28 12:59:03;;;;;;;0.00;0.00;;;19.00;56.50;;;;;;5012841;28;20077;-78
2022/04/28 13:01:30;;;;;;;0.00;0.00;;;18.90;54.80;;;;;;5014832;28;20430;-77
2022/04/28 13:04:05;;;;;;;0.00;0.00;;;18.80;62.90;;;;;;5009282;28;20017;-77
2022/04/28 13:06:35;;;;;;;0.00;0.00;;;18.70;59.10;;;;;;5013151;28;20075;-84
2022/04/28 13:09:02;;;;;;;0.00;0.00;;;18.70;57.60;;;;;;5009448;28;20025;-78
2022/04/28 13:11:30;;;;;;;2.45;2.33;;;18.80;54.80;;;;;;5014297;28;20266;-84
2022/04/28 13:14:18;;;;;;;0.00;0.00;;;18.80;57.30;;;;;;5014771;28;20358;-86
2022/04/28 13:16:46;;;;;;;0.00;0.00;;;18.80;54.20;;;;;;5015746;28;20682;-81
2022/04/28 13:19:12;;;;;;;0.00;0.00;;;18.70;57.90;;;;;;5005503;28;20036;-79
2022/04/28 13:21:39;;;;;;;0.25;0.25;;;18.60;65.50;;;;;;5007948;28;20062;-78
2022/04/28 13:24:07;;;;;;;0.00;0.00;;;18.50;63.50;;;;;;5004519;28;20132;-81
2022/04/28 13:26:33;;;;;;;0.00;0.00;;;18.50;64.30;;;;;;5008520;28;20045;-79
2022/04/28 13:29:00;;;;;;;0.00;0.00;;;18.50;65.20;;;;;;5007372;28;20397;-79
2022/04/28 13:31:30;;;;;;;0.00;0.00;;;18.50;63.80;;;;;;5006242;28;20116;-80